sensor_id;sensor_type;location;lat;lon;timestamp;pressure;altitude;pressure_sealevel;temperature;humidity
70684;BME280;58263;48.146;11.440;2023-01-27T00:01:45;95698.78;;;-0.45;80.87
70684;BME280;58263;48.146;11.440;2023-01-27T00:04:11;95701.09;;;-0.42;80.34
70684;BME280;58263;48.146;11.440;2023-01-27T00:06:36;95697.94;;;-0.45;80.32
70684;BME280;58263;48.146;11.440;2023-01-27T00:09:02;95700.75;;;-0.39;80.36
70684;BME280;58263;48.146;11.440;2023-01-27T00:11:27;95704.72;;;-0.43;81.05
70684;BME280;58263;48.146;11.440;2023-01-27T00:14:11;95701.09;;;-0.33;80.51
70684;BME280;58263;48.146;11.440;2023-01-27T00:16:36;95699.63;;;-0.36;80.31
70684;BME280;58263;48.146;11.440;2023-01-27T00:19:01;95700.44;;;-0.36;79.87
70684;BME280;58263;48.146;11.440;2023-01-27T00:21:27;95704.38;;;-0.31;80.48
70684;BME280;58263;48.146;11.440;2023-01-27T00:24:11;95701.75;;;-0.31;80.66
70684;BME280;58263;48.146;11.440;2023-01-27T00:26:55;95701.25;;;-0.43;81.08
70684;BME280;58263;48.146;11.440;2023-01-27T00:29:20;95703.41;;;-0.39;80.80
70684;BME280;58263;48.146;11.440;2023-01-27T00:31:46;95700.44;;;-0.36;81.10
70684;BME280;58263;48.146;11.440;2023-01-27T00:34:30;95696.81;;;-0.35;80.51
70684;BME280;58263;48.146;11.440;2023-01-27T00:36:55;95693.19;;;-0.33;80.25
70684;BME280;58263;48.146;11.440;2023-01-27T00:39:20;95692.22;;;-0.41;80.66
70684;BME280;58263;48.146;11.440;2023-01-27T00:41:45;95690.06;;;-0.45;80.62
70684;BME280;58263;48.146;11.440;2023-01-27T00:44:11;95682.47;;;-0.40;80.45
70684;BME280;58263;48.146;11.440;2023-01-27T00:46:40;95686.94;;;-0.32;80.75
70684;BME280;58263;48.146;11.440;2023-01-27T00:49:06;95695.31;;;-0.37;80.44
70684;BME280;58263;48.146;11.440;2023-01-27T00:51:31;95697.16;;;-0.29;80.41
70684;BME280;58263;48.146;11.440;2023-01-27T00:53:56;95698.81;;;-0.28;80.15
70684;BME280;58263;48.146;11.440;2023-01-27T00:56:23;95687.25;;;-0.36;80.10
70684;BME280;58263;48.146;11.440;2023-01-27T00:58:48;95691.38;;;-0.33;80.62
70684;BME280;58263;48.146;11.440;2023-01-27T01:01:15;95699.97;;;-0.31;79.93
70684;BME280;58263;48.146;11.440;2023-01-27T01:03:41;95699.13;;;-0.31;80.23
70684;BME280;58263;48.146;11.440;2023-01-27T01:06:09;95699.13;;;-0.23;79.90
70684;BME280;58263;48.146;11.440;2023-01-27T01:08:36;95701.91;;;-0.33;80.23
70684;BME280;58263;48.146;11.440;2023-01-27T01:11:02;95704.72;;;-0.26;80.17
70684;BME280;58263;48.146;11.440;2023-01-27T01:13:28;95710.66;;;-0.24;80.03
70684;BME280;58263;48.146;11.440;2023-01-27T01:15:54;95712.28;;;-0.23;80.29
70684;BME280;58263;48.146;11.440;2023-01-27T01:18:20;95707.34;;;-0.26;80.12
70684;BME280;58263;48.146;11.440;2023-01-27T01:20:46;95708.22;;;-0.18;80.22
70684;BME280;58263;48.146;11.440;2023-01-27T01:23:13;95714.97;;;-0.15;79.85
70684;BME280;58263;48.146;11.440;2023-01-27T01:25:39;95712.63;;;-0.18;80.24
70684;BME280;58263;48.146;11.440;2023-01-27T01:28:05;95708.03;;;-0.16;79.45
70684;BME280;58263;48.146;11.440;2023-01-27T01:30:33;95713.66;;;-0.19;79.17
70684;BME280;58263;48.146;11.440;2023-01-27T01:32:59;95714.47;;;-0.19;78.69
70684;BME280;58263;48.146;11.440;2023-01-27T01:35:24;95709.53;;;-0.22;79.06
70684;BME280;58263;48.146;11.440;2023-01-27T01:37:50;95712.63;;;-0.26;79.01
70684;BME280;58263;48.146;11.440;2023-01-27T01:40:16;95712.81;;;-0.20;78.91
70684;BME280;58263;48.146;11.440;2023-01-27T01:42:52;95711.31;;;-0.22;79.42
70684;BME280;58263;48.146;11.440;2023-01-27T01:48:08;95695.50;;;-0.22;78.97
70684;BME280;58263;48.146;11.440;2023-01-27T01:50:36;95695.34;;;-0.21;78.93
70684;BME280;58263;48.146;11.440;2023-01-27T01:53:04;95685.28;;;-0.17;79.03
70684;BME280;58263;48.146;11.440;2023-01-27T01:55:32;95691.53;;;-0.18;78.82
70684;BME280;58263;48.146;11.440;2023-01-27T01:57:59;95688.28;;;-0.20;78.86
70684;BME280;58263;48.146;11.440;2023-01-27T02:00:25;95684.78;;;-0.21;78.86
70684;BME280;58263;48.146;11.440;2023-01-27T02:02:51;95682.81;;;-0.19;78.92
70684;BME280;58263;48.146;11.440;2023-01-27T02:05:23;95673.44;;;-0.21;78.92
70684;BME280;58263;48.146;11.440;2023-01-27T02:07:54;95676.06;;;-0.21;78.81
70684;BME280;58263;48.146;11.440;2023-01-27T02:10:21;95679.69;;;-0.22;78.71
70684;BME280;58263;48.146;11.440;2023-01-27T02:12:47;95684.78;;;-0.21;79.07
70684;BME280;58263;48.146;11.440;2023-01-27T02:15:12;95691.38;;;-0.17;79.04
70684;BME280;58263;48.146;11.440;2023-01-27T02:17:38;95697.84;;;-0.19;79.13
70684;BME280;58263;48.146;11.440;2023-01-27T02:20:20;95709.53;;;-0.22;78.98
70684;BME280;58263;48.146;11.440;2023-01-27T02:27:59;95678.72;;;-0.21;79.31
70684;BME280;58263;48.146;11.440;2023-01-27T02:30:25;95682.31;;;-0.22;79.00
70684;BME280;58263;48.146;11.440;2023-01-27T02:32:50;95682.31;;;-0.22;79.15
70684;BME280;58263;48.146;11.440;2023-01-27T02:35:20;95681.50;;;-0.23;79.09
70684;BME280;58263;48.146;11.440;2023-01-27T02:37:47;95698.13;;;-0.22;78.91
70684;BME280;58263;48.146;11.440;2023-01-27T02:40:14;95689.25;;;-0.21;78.77
70684;BME280;58263;48.146;11.440;2023-01-27T02:42:40;95697.97;;;-0.21;78.83
70684;BME280;58263;48.146;11.440;2023-01-27T02:45:06;95697.50;;;-0.24;78.84
70684;BME280;58263;48.146;11.440;2023-01-27T02:47:31;95689.41;;;-0.23;78.76
70684;BME280;58263;48.146;11.440;2023-01-27T02:49:56;95681.97;;;-0.27;78.60
70684;BME280;58263;48.146;11.440;2023-01-27T02:52:22;95689.41;;;-0.31;78.76
70684;BME280;58263;48.146;11.440;2023-01-27T02:54:47;95680.84;;;-0.33;78.66
70684;BME280;58263;48.146;11.440;2023-01-27T02:57:13;95681.69;;;-0.32;78.35
70684;BME280;58263;48.146;11.440;2023-01-27T02:59:38;95683.47;;;-0.33;78.54
70684;BME280;58263;48.146;11.440;2023-01-27T03:02:03;95680.34;;;-0.37;79.41
70684;BME280;58263;48.146;11.440;2023-01-27T03:04:29;95674.25;;;-0.37;78.94
70684;BME280;58263;48.146;11.440;2023-01-27T03:06:54;95668.50;;;-0.41;79.27
70684;BME280;58263;48.146;11.440;2023-01-27T03:09:19;95673.59;;;-0.39;79.03
70684;BME280;58263;48.146;11.440;2023-01-27T03:11:45;95675.38;;;-0.40;79.17
70684;BME280;58263;48.146;11.440;2023-01-27T03:14:29;95676.22;;;-0.39;79.19
70684;BME280;58263;48.146;11.440;2023-01-27T03:17:12;95682.66;;;-0.42;78.66
70684;BME280;58263;48.146;11.440;2023-01-27T03:19:56;95681.00;;;-0.43;79.18
70684;BME280;58263;48.146;11.440;2023-01-27T03:22:21;95681.84;;;-0.42;79.01
70684;BME280;58263;48.146;11.440;2023-01-27T03:24:47;95676.22;;;-0.47;79.20
70684;BME280;58263;48.146;11.440;2023-01-27T03:27:12;95685.28;;;-0.50;79.26
70684;BME280;58263;48.146;11.440;2023-01-27T03:29:37;95679.66;;;-0.55;79.66
70684;BME280;58263;48.146;11.440;2023-01-27T03:32:23;95678.03;;;-0.48;79.25
70684;BME280;58263;48.146;11.440;2023-01-27T03:34:48;95677.22;;;-0.48;78.95
70684;BME280;58263;48.146;11.440;2023-01-27T03:37:13;95677.84;;;-0.46;79.21
70684;BME280;58263;48.146;11.440;2023-01-27T03:39:57;95671.78;;;-0.47;79.24
70684;BME280;58263;48.146;11.440;2023-01-27T03:42:41;95662.88;;;-0.46;78.96
70684;BME280;58263;48.146;11.440;2023-01-27T03:45:25;95671.13;;;-0.49;78.44
70684;BME280;58263;48.146;11.440;2023-01-27T03:48:10;95669.81;;;-0.53;78.64
70684;BME280;58263;48.146;11.440;2023-01-27T03:50:36;95673.75;;;-0.49;78.79
70684;BME280;58263;48.146;11.440;2023-01-27T03:53:02;95669.13;;;-0.47;78.69
70684;BME280;58263;48.146;11.440;2023-01-27T03:55:32;95673.91;;;-0.51;79.13
70684;BME280;58263;48.146;11.440;2023-01-27T03:57:58;95670.78;;;-0.46;79.27
70684;BME280;58263;48.146;11.440;2023-01-27T04:00:39;95667.81;;;-0.51;79.42
70684;BME280;58263;48.146;11.440;2023-01-27T04:03:04;95670.63;;;-0.53;79.46
70684;BME280;58263;48.146;11.440;2023-01-27T04:05:48;95678.19;;;-0.49;78.88
70684;BME280;58263;48.146;11.440;2023-01-27T04:08:32;95677.38;;;-0.50;79.52
70684;BME280;58263;48.146;11.440;2023-01-27T04:11:01;95681.16;;;-0.53;79.56
70684;BME280;58263;48.146;11.440;2023-01-27T04:13:45;95681.97;;;-0.52;79.13
70684;BME280;58263;48.146;11.440;2023-01-27T04:16:11;95677.38;;;-0.58;79.29
70684;BME280;58263;48.146;11.440;2023-01-27T04:18:36;95675.06;;;-0.53;79.18
70684;BME280;58263;48.146;11.440;2023-01-27T04:21:02;95671.44;;;-0.52;79.10
70684;BME280;58263;48.146;11.440;2023-01-27T04:23:28;95670.09;;;-0.56;79.35
70684;BME280;58263;48.146;11.440;2023-01-27T04:25:53;95671.94;;;-0.57;79.69
70684;BME280;58263;48.146;11.440;2023-01-27T04:28:20;95675.06;;;-0.53;79.57
70684;BME280;58263;48.146;11.440;2023-01-27T04:30:46;95671.44;;;-0.52;79.32
70684;BME280;58263;48.146;11.440;2023-01-27T04:33:11;95672.44;;;-0.53;79.24
70684;BME280;58263;48.146;11.440;2023-01-27T04:35:42;95671.44;;;-0.52;78.97
70684;BME280;58263;48.146;11.440;2023-01-27T04:38:09;95670.78;;;-0.54;78.50
70684;BME280;58263;48.146;11.440;2023-01-27T04:40:34;95669.81;;;-0.53;78.57
70684;BME280;58263;48.146;11.440;2023-01-27T04:42:59;95672.09;;;-0.58;78.23
70684;BME280;58263;48.146;11.440;2023-01-27T04:45:24;95673.59;;;-0.56;78.11
70684;BME280;58263;48.146;11.440;2023-01-27T04:47:50;95679.03;;;-0.57;78.37
70684;BME280;58263;48.146;11.440;2023-01-27T04:50:15;95676.03;;;-0.62;78.60
70684;BME280;58263;48.146;11.440;2023-01-27T04:52:41;95676.69;;;-0.60;78.72
70684;BME280;58263;48.146;11.440;2023-01-27T04:55:06;95674.06;;;-0.60;78.91
70684;BME280;58263;48.146;11.440;2023-01-27T04:57:32;95677.03;;;-0.55;78.85
70684;BME280;58263;48.146;11.440;2023-01-27T04:59:57;95680.66;;;-0.56;79.09
70684;BME280;58263;48.146;11.440;2023-01-27T05:02:22;95681.16;;;-0.53;79.14
70684;BME280;58263;48.146;11.440;2023-01-27T05:04:49;95682.97;;;-0.53;79.10
70684;BME280;58263;48.146;11.440;2023-01-27T05:07:14;95681.16;;;-0.53;78.88
70684;BME280;58263;48.146;11.440;2023-01-27T05:09:39;95677.84;;;-0.55;78.76
70684;BME280;58263;48.146;11.440;2023-01-27T05:12:05;95677.19;;;-0.57;79.14
70684;BME280;58263;48.146;11.440;2023-01-27T05:14:30;95677.03;;;-0.55;78.99
70684;BME280;58263;48.146;11.440;2023-01-27T05:16:55;95678.34;;;-0.51;78.95
70684;BME280;58263;48.146;11.440;2023-01-27T05:19:21;95676.69;;;-0.52;78.44
70684;BME280;58263;48.146;11.440;2023-01-27T05:21:46;95685.63;;;-0.53;78.51
70684;BME280;58263;48.146;11.440;2023-01-27T05:24:11;95680.34;;;-0.53;77.74
70684;BME280;58263;48.146;11.440;2023-01-27T05:26:37;95684.94;;;-0.55;77.75
70684;BME280;58263;48.146;11.440;2023-01-27T05:29:02;95687.22;;;-0.60;77.80
70684;BME280;58263;48.146;11.440;2023-01-27T05:31:29;95687.91;;;-0.58;77.99
70684;BME280;58263;48.146;11.440;2023-01-27T05:33:59;95688.88;;;-0.59;77.93
70684;BME280;58263;48.146;11.440;2023-01-27T05:36:25;95695.16;;;-0.52;78.05
70684;BME280;58263;48.146;11.440;2023-01-27T05:38:52;95701.09;;;-0.50;77.91
70684;BME280;58263;48.146;11.440;2023-01-27T05:41:18;95697.94;;;-0.45;77.84
70684;BME280;58263;48.146;11.440;2023-01-27T05:43:46;95702.75;;;-0.49;78.22
70684;BME280;58263;48.146;11.440;2023-01-27T05:46:13;95710.94;;;-0.52;78.37
70684;BME280;58263;48.146;11.440;2023-01-27T05:48:41;95708.00;;;-0.49;78.20
70684;BME280;58263;48.146;11.440;2023-01-27T05:51:07;95706.19;;;-0.48;78.03
70684;BME280;58263;48.146;11.440;2023-01-27T05:53:33;95710.47;;;-0.47;77.63
70684;BME280;58263;48.146;11.440;2023-01-27T05:55:59;95713.59;;;-0.52;77.26
70684;BME280;58263;48.146;11.440;2023-01-27T05:58:25;95706.53;;;-0.52;77.83
70684;BME280;58263;48.146;11.440;2023-01-27T06:00:50;95714.25;;;-0.50;77.67
70684;BME280;58263;48.146;11.440;2023-01-27T06:03:16;95710.78;;;-0.51;77.76
70684;BME280;58263;48.146;11.440;2023-01-27T06:05:49;95721.19;;;-0.49;77.61
70684;BME280;58263;48.146;11.440;2023-01-27T06:08:15;95722.00;;;-0.48;77.41
70684;BME280;58263;48.146;11.440;2023-01-27T06:10:40;95725.59;;;-0.49;77.35
70684;BME280;58263;48.146;11.440;2023-01-27T06:13:06;95732.34;;;-0.55;78.07
70684;BME280;58263;48.146;11.440;2023-01-27T06:15:31;95732.03;;;-0.52;78.25
70684;BME280;58263;48.146;11.440;2023-01-27T06:17:56;95735.00;;;-0.47;78.19
70684;BME280;58263;48.146;11.440;2023-01-27T06:20:22;95735.97;;;-0.48;78.12
70684;BME280;58263;48.146;11.440;2023-01-27T06:22:47;95740.94;;;-0.45;77.78
70684;BME280;58263;48.146;11.440;2023-01-27T06:25:14;95733.19;;;-0.46;78.14
70684;BME280;58263;48.146;11.440;2023-01-27T06:27:40;95737.63;;;-0.47;78.05
70684;BME280;58263;48.146;11.440;2023-01-27T06:30:06;95735.16;;;-0.48;78.42
70684;BME280;58263;48.146;11.440;2023-01-27T06:32:34;95746.66;;;-0.58;78.87
70684;BME280;58263;48.146;11.440;2023-01-27T06:35:00;95745.19;;;-0.52;78.44
70684;BME280;58263;48.146;11.440;2023-01-27T06:37:28;95744.56;;;-0.46;77.99
70684;BME280;58263;48.146;11.440;2023-01-27T06:39:53;95744.91;;;-0.49;78.03
70684;BME280;58263;48.146;11.440;2023-01-27T06:42:18;95747.66;;;-0.51;77.74
70684;BME280;58263;48.146;11.440;2023-01-27T06:44:43;95743.88;;;-0.48;78.44
70684;BME280;58263;48.146;11.440;2023-01-27T06:47:09;95752.13;;;-0.51;78.85
70684;BME280;58263;48.146;11.440;2023-01-27T06:49:34;95759.03;;;-0.50;78.55
70684;BME280;58263;48.146;11.440;2023-01-27T06:51:59;95769.91;;;-0.53;78.74
70684;BME280;58263;48.146;11.440;2023-01-27T06:54:25;95769.91;;;-0.53;78.72
70684;BME280;58263;48.146;11.440;2023-01-27T06:56:50;95773.19;;;-0.51;78.95
70684;BME280;58263;48.146;11.440;2023-01-27T06:59:15;95781.78;;;-0.49;79.22
70684;BME280;58263;48.146;11.440;2023-01-27T07:01:40;95784.06;;;-0.54;79.55
70684;BME280;58263;48.146;11.440;2023-01-27T07:04:06;95777.66;;;-0.52;79.54
70684;BME280;58263;48.146;11.440;2023-01-27T07:06:32;95785.72;;;-0.53;79.77
70684;BME280;58263;48.146;11.440;2023-01-27T07:08:57;95774.19;;;-0.52;79.57
70684;BME280;58263;48.146;11.440;2023-01-27T07:11:22;95768.91;;;-0.52;79.50
70684;BME280;58263;48.146;11.440;2023-01-27T07:13:49;95775.66;;;-0.49;79.40
70684;BME280;58263;48.146;11.440;2023-01-27T07:16:14;95772.06;;;-0.48;79.26
70684;BME280;58263;48.146;11.440;2023-01-27T07:18:40;95774.19;;;-0.52;79.20
70684;BME280;58263;48.146;11.440;2023-01-27T07:21:05;95781.91;;;-0.51;79.25
70684;BME280;58263;48.146;11.440;2023-01-27T07:23:31;95771.25;;;-0.49;79.64
70684;BME280;58263;48.146;11.440;2023-01-27T07:25:56;95777.16;;;-0.47;79.73
70684;BME280;58263;48.146;11.440;2023-01-27T07:28:22;95783.09;;;-0.45;79.98
70684;BME280;58263;48.146;11.440;2023-01-27T07:30:47;95781.44;;;-0.46;79.28
70684;BME280;58263;48.146;11.440;2023-01-27T07:33:12;95767.59;;;-0.48;79.44
70684;BME280;58263;48.146;11.440;2023-01-27T07:35:39;95763.47;;;-0.51;79.90
70684;BME280;58263;48.146;11.440;2023-01-27T07:38:07;95767.78;;;-0.41;79.79
70684;BME280;58263;48.146;11.440;2023-01-27T07:40:33;95767.44;;;-0.46;79.69
70684;BME280;58263;48.146;11.440;2023-01-27T07:42:59;95766.78;;;-0.48;80.12
70684;BME280;58263;48.146;11.440;2023-01-27T07:45:25;95763.53;;;-0.42;79.78
70684;BME280;58263;48.146;11.440;2023-01-27T07:47:51;95768.94;;;-0.44;79.71
70684;BME280;58263;48.146;11.440;2023-01-27T07:50:16;95764.16;;;-0.40;79.74
70684;BME280;58263;48.146;11.440;2023-01-27T07:52:41;95774.69;;;-0.48;80.33
70684;BME280;58263;48.146;11.440;2023-01-27T07:55:07;95768.94;;;-0.44;80.13
70684;BME280;58263;48.146;11.440;2023-01-27T07:57:33;95761.38;;;-0.39;79.89
70684;BME280;58263;48.146;11.440;2023-01-27T07:59:58;95759.06;;;-0.42;80.45
70684;BME280;58263;48.146;11.440;2023-01-27T08:02:23;95763.34;;;-0.41;79.58
70684;BME280;58263;48.146;11.440;2023-01-27T08:04:50;95767.97;;;-0.26;79.57
70684;BME280;58263;48.146;11.440;2023-01-27T08:07:16;95756.78;;;-0.28;79.34
70684;BME280;58263;48.146;11.440;2023-01-27T08:09:41;95770.28;;;-0.23;79.39
70684;BME280;58263;48.146;11.440;2023-01-27T08:12:07;95764.53;;;-0.27;79.83
70684;BME280;58263;48.146;11.440;2023-01-27T08:14:32;95763.53;;;-0.34;79.80
70684;BME280;58263;48.146;11.440;2023-01-27T08:16:57;95772.28;;;-0.25;79.68
70684;BME280;58263;48.146;11.440;2023-01-27T08:19:23;95771.59;;;-0.27;79.22
70684;BME280;58263;48.146;11.440;2023-01-27T08:21:48;95771.13;;;-0.23;79.30
70684;BME280;58263;48.146;11.440;2023-01-27T08:24:13;95761.38;;;-0.22;79.37
70684;BME280;58263;48.146;11.440;2023-01-27T08:26:39;95777.03;;;-0.21;79.26
70684;BME280;58263;48.146;11.440;2023-01-27T08:29:04;95777.03;;;-0.21;79.41
70684;BME280;58263;48.146;11.440;2023-01-27T08:31:29;95783.81;;;-0.18;78.93
70684;BME280;58263;48.146;11.440;2023-01-27T08:33:55;95789.06;;;-0.18;79.03
70684;BME280;58263;48.146;11.440;2023-01-27T08:36:22;95790.72;;;-0.17;79.09
70684;BME280;58263;48.146;11.440;2023-01-27T08:38:48;95787.94;;;-0.15;78.89
70684;BME280;58263;48.146;11.440;2023-01-27T08:41:16;95785.13;;;-0.14;79.14
70684;BME280;58263;48.146;11.440;2023-01-27T08:43:42;95783.50;;;-0.15;78.98
70684;BME280;58263;48.146;11.440;2023-01-27T08:46:08;95784.31;;;-0.14;78.89
70684;BME280;58263;48.146;11.440;2023-01-27T08:48:35;95790.56;;;-0.07;78.63
70684;BME280;58263;48.146;11.440;2023-01-27T08:51:01;95792.56;;;-0.09;78.81
70684;BME280;58263;48.146;11.440;2023-01-27T08:53:28;95793.53;;;-0.10;79.06
70684;BME280;58263;48.146;11.440;2023-01-27T08:55:58;95807.53;;;-0.10;79.40
70684;BME280;58263;48.146;11.440;2023-01-27T08:58:26;95807.25;;;-0.07;79.13
70684;BME280;58263;48.146;11.440;2023-01-27T09:00:51;95808.84;;;-0.14;79.04
70684;BME280;58263;48.146;11.440;2023-01-27T09:03:16;95809.19;;;-0.09;79.03
70684;BME280;58263;48.146;11.440;2023-01-27T09:05:42;95808.38;;;-0.09;78.91
70684;BME280;58263;48.146;11.440;2023-01-27T09:08:08;95803.59;;;-0.06;79.10
70684;BME280;58263;48.146;11.440;2023-01-27T09:10:38;95809.88;;;-0.07;78.90
70684;BME280;58263;48.146;11.440;2023-01-27T09:13:04;95815.97;;;-0.06;78.91
70684;BME280;58263;48.146;11.440;2023-01-27T09:15:29;95818.94;;;-0.01;78.73
70684;BME280;58263;48.146;11.440;2023-01-27T09:17:55;95808.69;;;-0.04;79.07
70684;BME280;58263;48.146;11.440;2023-01-27T09:20:21;95805.75;;;-0.01;79.01
70684;BME280;58263;48.146;11.440;2023-01-27T09:22:47;95809.03;;;0.01;78.57
70684;BME280;58263;48.146;11.440;2023-01-27T09:25:14;95813.50;;;0.09;78.85
70684;BME280;58263;48.146;11.440;2023-01-27T09:27:41;95823.88;;;0.10;78.52
70684;BME280;58263;48.146;11.440;2023-01-27T09:30:08;95819.59;;;0.09;77.99
70684;BME280;58263;48.146;11.440;2023-01-27T09:32:33;95826.38;;;0.12;77.87
70684;BME280;58263;48.146;11.440;2023-01-27T09:34:59;95826.38;;;0.12;77.74
70684;BME280;58263;48.146;11.440;2023-01-27T09:37:24;95827.34;;;0.11;77.80
70684;BME280;58263;48.146;11.440;2023-01-27T09:39:55;95826.38;;;0.12;77.66
70684;BME280;58263;48.146;11.440;2023-01-27T09:42:43;95831.16;;;0.08;77.69
70684;BME280;58263;48.146;11.440;2023-01-27T09:48:05;95822.91;;;0.11;77.98
70684;BME280;58263;48.146;11.440;2023-01-27T09:50:44;95828.03;;;0.13;77.43
70684;BME280;58263;48.146;11.440;2023-01-27T09:56:13;95824.72;;;0.19;77.76
70684;BME280;58263;48.146;11.440;2023-01-27T10:15:13;95820.94;;;0.22;77.04
70684;BME280;58263;48.146;11.440;2023-01-27T10:17:58;95816.50;;;0.22;77.15
70684;BME280;58263;48.146;11.440;2023-01-27T10:25:57;95832.78;;;0.26;77.07
70684;BME280;58263;48.146;11.440;2023-01-27T10:28:28;95827.53;;;0.26;76.61
70684;BME280;58263;48.146;11.440;2023-01-27T10:31:02;95817.66;;;0.28;76.28
70684;BME280;58263;48.146;11.440;2023-01-27T10:36:29;95828.19;;;0.28;76.24
70684;BME280;58263;48.146;11.440;2023-01-27T10:49:47;95845.69;;;0.29;75.62
70684;BME280;58263;48.146;11.440;2023-01-27T10:52:16;95840.25;;;0.30;75.70
70684;BME280;58263;48.146;11.440;2023-01-27T10:54:47;95841.91;;;0.31;75.47
70684;BME280;58263;48.146;11.440;2023-01-27T10:59:59;95829.53;;;0.32;75.46
70684;BME280;58263;48.146;11.440;2023-01-27T11:02:35;95834.28;;;0.37;75.03
70684;BME280;58263;48.146;11.440;2023-01-27T11:05:07;95838.75;;;0.36;75.36
70684;BME280;58263;48.146;11.440;2023-01-27T11:07:47;95836.75;;;0.38;75.04
70684;BME280;58263;48.146;11.440;2023-01-27T11:10:17;95833.31;;;0.38;75.19
70684;BME280;58263;48.146;11.440;2023-01-27T11:12:47;95828.69;;;0.40;75.28
70684;BME280;58263;48.146;11.440;2023-01-27T11:15:29;95816.16;;;0.42;75.16
70684;BME280;58263;48.146;11.440;2023-01-27T11:18:13;95826.38;;;0.45;75.41
70684;BME280;58263;48.146;11.440;2023-01-27T11:20:43;95833.31;;;0.46;75.45
70684;BME280;58263;48.146;11.440;2023-01-27T11:23:20;95824.06;;;0.50;74.80
70684;BME280;58263;48.146;11.440;2023-01-27T11:25:53;95823.41;;;0.56;74.29
70684;BME280;58263;48.146;11.440;2023-01-27T11:28:30;95818.13;;;0.56;74.13
70684;BME280;58263;48.146;11.440;2023-01-27T11:36:28;95821.25;;;0.52;73.75
70684;BME280;58263;48.146;11.440;2023-01-27T11:38:55;95822.75;;;0.54;73.56
70684;BME280;58263;48.146;11.440;2023-01-27T11:41:22;95826.38;;;0.53;73.40
70684;BME280;58263;48.146;11.440;2023-01-27T11:43:48;95824.75;;;0.52;73.33
70684;BME280;58263;48.146;11.440;2023-01-27T11:46:18;95822.75;;;0.54;72.94
70684;BME280;58263;48.146;11.440;2023-01-27T11:48:48;95825.56;;;0.53;73.66
70684;BME280;58263;48.146;11.440;2023-01-27T11:51:18;95819.94;;;0.56;74.19
70684;BME280;58263;48.146;11.440;2023-01-27T11:53:49;95820.44;;;0.51;74.03
70684;BME280;58263;48.146;11.440;2023-01-27T11:56:17;95815.00;;;0.53;73.95
70684;BME280;58263;48.146;11.440;2023-01-27T12:01:51;95817.47;;;0.54;73.76
70684;BME280;58263;48.146;11.440;2023-01-27T12:06:54;95802.94;;;0.58;73.85
70684;BME280;58263;48.146;11.440;2023-01-27T12:09:36;95806.91;;;0.62;74.26
70684;BME280;58263;48.146;11.440;2023-01-27T12:14:55;95809.06;;;0.67;73.44
70684;BME280;58263;48.146;11.440;2023-01-27T12:19:47;95808.03;;;0.68;72.54
70684;BME280;58263;48.146;11.440;2023-01-27T12:24:49;95803.75;;;0.83;71.67
70684;BME280;58263;48.146;11.440;2023-01-27T12:27:22;95802.59;;;0.86;71.58
70684;BME280;58263;48.146;11.440;2023-01-27T12:29:53;95799.94;;;0.86;71.42
70684;BME280;58263;48.146;11.440;2023-01-27T12:32:23;95799.94;;;0.86;71.88
70684;BME280;58263;48.146;11.440;2023-01-27T12:34:55;95793.66;;;0.87;72.40
70684;BME280;58263;48.146;11.440;2023-01-27T12:37:26;95792.53;;;0.81;71.14
70684;BME280;58263;48.146;11.440;2023-01-27T12:39:55;95794.81;;;0.84;71.34
70684;BME280;58263;48.146;11.440;2023-01-27T12:42:41;95799.28;;;0.84;71.91
70684;BME280;58263;48.146;11.440;2023-01-27T12:45:25;95797.31;;;0.86;71.39
70684;BME280;58263;48.146;11.440;2023-01-27T12:53:18;95800.47;;;0.73;71.62
70684;BME280;58263;48.146;11.440;2023-01-27T12:55:51;95801.28;;;0.82;71.37
70684;BME280;58263;48.146;11.440;2023-01-27T12:59:01;95792.66;;;0.88;71.42
70684;BME280;58263;48.146;11.440;2023-01-27T13:01:30;95794.97;;;0.91;71.69
70684;BME280;58263;48.146;11.440;2023-01-27T13:04:03;95787.72;;;0.93;71.56
70684;BME280;58263;48.146;11.440;2023-01-27T13:06:53;95783.91;;;0.96;71.00
70684;BME280;58263;48.146;11.440;2023-01-27T13:09:37;95781.91;;;0.98;70.00
70684;BME280;58263;48.146;11.440;2023-01-27T13:12:19;95784.38;;;0.99;70.06
70684;BME280;58263;48.146;11.440;2023-01-27T13:14:49;95784.38;;;0.99;70.49
70684;BME280;58263;48.146;11.440;2023-01-27T13:17:31;95781.88;;;1.06;70.24
70684;BME280;58263;48.146;11.440;2023-01-27T13:20:12;95785.69;;;1.12;70.00
70684;BME280;58263;48.146;11.440;2023-01-27T13:22:43;95786.34;;;1.14;70.23
70684;BME280;58263;48.146;11.440;2023-01-27T13:25:16;95786.00;;;1.09;69.32
70684;BME280;58263;48.146;11.440;2023-01-27T13:27:42;95784.34;;;1.08;69.52
70684;BME280;58263;48.146;11.440;2023-01-27T13:30:18;95780.56;;;1.10;70.03
70684;BME280;58263;48.146;11.440;2023-01-27T13:32:47;95782.56;;;1.08;70.59
70684;BME280;58263;48.146;11.440;2023-01-27T13:35:21;95781.41;;;1.11;70.27
70684;BME280;58263;48.146;11.440;2023-01-27T13:38:14;95778.44;;;1.06;69.27
70684;BME280;58263;48.146;11.440;2023-01-27T13:40:44;95779.75;;;1.10;69.32
70684;BME280;58263;48.146;11.440;2023-01-27T13:43:19;95787.16;;;1.14;69.06
70684;BME280;58263;48.146;11.440;2023-01-27T13:45:57;95790.31;;;1.10;69.67
70684;BME280;58263;48.146;11.440;2023-01-27T13:48:31;95792.13;;;1.09;68.92
70684;BME280;58263;48.146;11.440;2023-01-27T13:53:29;95790.00;;;1.05;70.15
70684;BME280;58263;48.146;11.440;2023-01-27T13:59:04;95791.63;;;1.06;70.19
70684;BME280;58263;48.146;11.440;2023-01-27T14:14:43;95801.22;;;1.07;70.18
70684;BME280;58263;48.146;11.440;2023-01-27T14:17:27;95803.53;;;1.01;68.57
70684;BME280;58263;48.146;11.440;2023-01-27T14:20:27;95802.88;;;0.99;69.68
70684;BME280;58263;48.146;11.440;2023-01-27T14:25:54;95803.53;;;1.01;69.75
70684;BME280;58263;48.146;11.440;2023-01-27T14:31:19;95800.22;;;0.99;69.21
70684;BME280;58263;48.146;11.440;2023-01-27T14:33:53;95808.16;;;0.99;69.34
70684;BME280;58263;48.146;11.440;2023-01-27T14:36:31;95801.09;;;0.92;69.73
70684;BME280;58263;48.146;11.440;2023-01-27T14:41:45;95804.88;;;0.97;69.54
70684;BME280;58263;48.146;11.440;2023-01-27T14:44:24;95807.84;;;0.94;69.23
70684;BME280;58263;48.146;11.440;2023-01-27T14:47:15;95807.00;;;0.94;69.48